createdAt,value
2023-01-29T00:01:39.980Z,101261.06
2023-01-29T00:04:07.752Z,101260.19
2023-01-29T00:06:35.448Z,101266.28
2023-01-29T00:09:03.192Z,101257.59
2023-01-29T00:11:32.154Z,101249.78
2023-01-29T00:14:00.307Z,101242.00
2023-01-29T00:16:28.033Z,101238.50
2023-01-29T00:18:55.820Z,101240.25
2023-01-29T00:21:23.574Z,101235.03
2023-01-29T00:23:51.470Z,101231.53
2023-01-29T00:26:19.491Z,101227.22
2023-01-29T00:28:47.280Z,101228.91
2023-01-29T00:31:15.300Z,101231.53
2023-01-29T00:33:43.382Z,101221.94
2023-01-29T00:36:11.108Z,101228.00
2023-01-29T00:38:39.675Z,101224.56
2023-01-29T00:41:24.732Z,101227.13
2023-01-29T00:44:09.692Z,101214.94
2023-01-29T00:46:37.516Z,101221.88
2023-01-29T00:49:05.226Z,101232.31
2023-01-29T00:51:32.879Z,101223.63
2023-01-29T00:54:00.508Z,101230.56
2023-01-29T00:56:28.206Z,101229.69
2023-01-29T00:58:55.949Z,101232.34
2023-01-29T01:01:43.940Z,101230.63
2023-01-29T01:04:10.763Z,101234.13
2023-01-29T01:06:38.398Z,101236.75
2023-01-29T01:09:23.720Z,101228.97
2023-01-29T01:11:51.749Z,101229.88
2023-01-29T01:14:19.730Z,101237.69
2023-01-29T01:16:47.613Z,101242.03
2023-01-29T01:19:15.900Z,101251.59
2023-01-29T01:21:46.454Z,101256.81
2023-01-29T01:24:14.468Z,101249.00
2023-01-29T01:26:42.124Z,101242.06
2023-01-29T01:29:09.997Z,101241.25
2023-01-29T01:31:37.688Z,101249.06
2023-01-29T01:34:05.408Z,101238.63
2023-01-29T01:36:34.572Z,101231.69
2023-01-29T01:39:02.279Z,101227.38
2023-01-29T01:41:30.244Z,101219.59
2023-01-29T01:43:58.520Z,101209.16
2023-01-29T01:46:26.208Z,101202.22
2023-01-29T01:48:54.043Z,101194.41
2023-01-29T01:51:21.667Z,101194.41
2023-01-29T01:53:49.823Z,101185.72
2023-01-29T01:56:17.668Z,101188.34
2023-01-29T01:58:45.621Z,101196.16
2023-01-29T02:01:13.577Z,101203.09
2023-01-29T02:03:59.252Z,101198.75
2023-01-29T02:06:44.191Z,101199.59
2023-01-29T02:09:29.139Z,101203.91
2023-01-29T02:11:56.832Z,101204.78
2023-01-29T02:14:25.825Z,101205.66
2023-01-29T02:16:53.455Z,101210.88
2023-01-29T02:19:21.431Z,101211.75
2023-01-29T02:21:49.026Z,101204.81
2023-01-29T02:24:16.714Z,101210.03
2023-01-29T02:26:44.736Z,101216.13
2023-01-29T02:29:25.208Z,101207.44
2023-01-29T02:31:52.895Z,101215.28
2023-01-29T02:34:20.811Z,101228.28
2023-01-29T02:36:49.306Z,101234.38
2023-01-29T02:39:16.969Z,101226.59
2023-01-29T02:41:44.596Z,101228.31
2023-01-29T02:44:12.200Z,101226.56
2023-01-29T02:46:39.920Z,101217.06
2023-01-29T02:49:07.513Z,101217.03
2023-01-29T02:51:35.152Z,101226.59
2023-01-29T02:54:02.832Z,101224.00
2023-01-29T02:56:30.487Z,101217.91
2023-01-29T02:58:58.214Z,101234.38
2023-01-29T03:01:26.688Z,101230.91
2023-01-29T03:03:54.301Z,101233.53
2023-01-29T03:06:22.552Z,101235.25
2023-01-29T03:08:50.304Z,101245.66
2023-01-29T03:11:17.956Z,101236.06
2023-01-29T03:13:45.591Z,101236.94
2023-01-29T03:16:13.245Z,101249.91
2023-01-29T03:18:46.014Z,101237.69
2023-01-29T03:21:27.539Z,101233.31
2023-01-29T03:24:12.798Z,101234.16
2023-01-29T03:26:57.694Z,101227.19
2023-01-29T03:29:42.651Z,101217.66
2023-01-29T03:32:10.417Z,101210.66
2023-01-29T03:34:39.344Z,101212.41
2023-01-29T03:37:07.881Z,101211.56
2023-01-29T03:39:35.596Z,101214.16
2023-01-29T03:42:03.657Z,101225.47
2023-01-29T03:44:31.252Z,101223.72
2023-01-29T03:46:59.203Z,101221.09
2023-01-29T03:49:26.812Z,101214.13
2023-01-29T03:51:54.606Z,101218.44
2023-01-29T03:54:22.197Z,101214.03
2023-01-29T03:56:49.945Z,101201.81
2023-01-29T03:59:18.016Z,101195.69
2023-01-29T04:01:47.719Z,101189.56
2023-01-29T04:04:15.761Z,101191.28
2023-01-29T04:06:43.331Z,101191.25
2023-01-29T04:09:11.098Z,101181.66
2023-01-29T04:11:39.075Z,101183.38
2023-01-29T04:14:06.661Z,101174.66
2023-01-29T04:16:34.271Z,101173.78
2023-01-29T04:19:01.855Z,101170.28
2023-01-29T04:21:29.491Z,101166.78
2023-01-29T04:23:57.476Z,101168.53
2023-01-29T04:26:25.478Z,101164.16
2023-01-29T04:28:53.120Z,101163.31
2023-01-29T04:31:20.787Z,101158.97
2023-01-29T04:33:48.405Z,101159.88
2023-01-29T04:36:16.439Z,101158.19
2023-01-29T04:38:44.016Z,101163.41
2023-01-29T04:41:11.587Z,101163.38
2023-01-29T04:43:39.162Z,101159.88
2023-01-29T04:46:06.951Z,101148.53
2023-01-29T04:48:35.231Z,101146.78
2023-01-29T04:51:02.827Z,101131.91
2023-01-29T04:53:30.688Z,101136.19
2023-01-29T04:55:58.262Z,101135.25
2023-01-29T04:58:26.033Z,101132.53
2023-01-29T05:00:53.984Z,101130.72
2023-01-29T05:03:21.562Z,101121.94
2023-01-29T05:05:49.237Z,101119.25
2023-01-29T05:08:16.852Z,101121.75
2023-01-29T05:10:45.553Z,101113.84
2023-01-29T05:13:13.336Z,101121.63
2023-01-29T05:15:41.094Z,101099.78
2023-01-29T05:18:09.228Z,101100.59
2023-01-29T05:20:36.861Z,101090.94
2023-01-29T05:23:04.536Z,101078.69
2023-01-29T05:25:32.532Z,101088.25
2023-01-29T05:28:05.045Z,101083.00
2023-01-29T05:30:32.702Z,101076.00
2023-01-29T05:33:00.706Z,101066.44
2023-01-29T05:35:29.055Z,101074.25
2023-01-29T05:37:57.100Z,101076.84
2023-01-29T05:40:24.654Z,101082.06
2023-01-29T05:42:52.218Z,101077.72
2023-01-29T05:45:19.824Z,101084.66
2023-01-29T05:47:47.371Z,101083.75
2023-01-29T05:50:15.667Z,101075.88
2023-01-29T05:52:43.481Z,101081.91
2023-01-29T05:55:11.102Z,101092.28
2023-01-29T05:57:38.755Z,101100.94
2023-01-29T06:00:06.588Z,101102.59
2023-01-29T06:02:34.623Z,101106.03
2023-01-29T06:05:02.212Z,101113.84
2023-01-29T06:07:29.818Z,101108.50
2023-01-29T06:09:57.435Z,101117.16
2023-01-29T06:12:25.012Z,101128.47
2023-01-29T06:14:53.365Z,101121.44
2023-01-29T06:17:20.928Z,101120.56
2023-01-29T06:19:48.533Z,101111.84
2023-01-29T06:22:16.144Z,101127.53
2023-01-29T06:24:44.032Z,101133.66
2023-01-29T06:27:11.990Z,101133.66
2023-01-29T06:29:39.586Z,101138.03
2023-01-29T06:32:07.212Z,101134.53
2023-01-29T06:34:34.817Z,101131.00
2023-01-29T06:37:04.484Z,101133.59
2023-01-29T06:39:32.478Z,101138.75
2023-01-29T06:42:00.110Z,101135.22
2023-01-29T06:44:27.814Z,101122.13
2023-01-29T06:46:55.391Z,101124.81
2023-01-29T06:49:23.363Z,101132.69
2023-01-29T06:51:51.305Z,101140.53
2023-01-29T06:54:18.889Z,101137.00
2023-01-29T06:56:46.490Z,101145.72
2023-01-29T06:59:14.435Z,101150.06
2023-01-29T07:01:44.322Z,101143.03
2023-01-29T07:04:12.522Z,101141.25
2023-01-29T07:06:40.190Z,101156.88
2023-01-29T07:09:07.765Z,101161.19
2023-01-29T07:11:35.354Z,101148.94
2023-01-29T07:14:03.229Z,101148.88
2023-01-29T07:16:31.247Z,101146.25
2023-01-29T07:18:58.874Z,101143.56
2023-01-29T07:21:26.552Z,101136.53
2023-01-29T07:23:54.175Z,101135.63
2023-01-29T07:26:21.860Z,101129.53
2023-01-29T07:28:49.855Z,101139.13
2023-01-29T07:31:17.575Z,101133.81
2023-01-29T07:33:45.471Z,101125.91
2023-01-29T07:36:13.123Z,101115.41
2023-01-29T07:38:40.912Z,101124.97
2023-01-29T07:41:09.297Z,101125.81
2023-01-29T07:43:36.935Z,101123.16
2023-01-29T07:46:04.683Z,101118.75
2023-01-29T07:48:32.379Z,101124.88
2023-01-29T07:51:00.458Z,101122.19
2023-01-29T07:53:28.101Z,101123.00
2023-01-29T07:55:55.713Z,101129.94
2023-01-29T07:58:23.390Z,101124.69
2023-01-29T08:00:51.040Z,101121.09
2023-01-29T08:03:20.191Z,101117.56
2023-01-29T08:05:48.176Z,101114.88
2023-01-29T08:08:15.773Z,101104.41
2023-01-29T08:10:43.353Z,101107.00
2023-01-29T08:13:11.051Z,101109.56
2023-01-29T08:15:39.346Z,101102.56
2023-01-29T08:18:07.492Z,101101.59
2023-01-29T08:20:35.286Z,101092.00
2023-01-29T08:23:03.025Z,101089.31
2023-01-29T08:25:31.257Z,101075.31
2023-01-29T08:27:59.309Z,101077.91
2023-01-29T08:30:27.444Z,101083.06
2023-01-29T08:32:55.068Z,101083.94
2023-01-29T08:35:22.779Z,101095.22
2023-01-29T08:37:50.506Z,101103.91
2023-01-29T08:40:18.523Z,101102.09
2023-01-29T08:42:46.721Z,101102.88
2023-01-29T08:45:14.412Z,101101.97
2023-01-29T08:47:42.582Z,101096.63
2023-01-29T08:50:10.377Z,101087.81
2023-01-29T08:52:38.175Z,101077.31
2023-01-29T08:55:06.031Z,101062.41
2023-01-29T08:57:33.836Z,101038.88
2023-01-29T09:00:01.622Z,101051.09
2023-01-29T09:02:29.404Z,101054.59
2023-01-29T09:04:57.520Z,101064.16
2023-01-29T09:07:25.593Z,101065.81
2023-01-29T09:09:53.821Z,101063.09
2023-01-29T09:12:21.733Z,101050.69
2023-01-29T09:14:49.387Z,101046.22
2023-01-29T09:17:17.160Z,101043.41
2023-01-29T09:19:45.214Z,101044.13
2023-01-29T09:22:12.928Z,101042.25
2023-01-29T09:24:40.658Z,101036.97
2023-01-29T09:27:10.280Z,101034.25
2023-01-29T09:29:38.148Z,101035.97
2023-01-29T09:32:07.044Z,101033.22
2023-01-29T09:34:35.021Z,101026.94
2023-01-29T09:37:02.770Z,101038.09
2023-01-29T09:39:30.521Z,101037.81
2023-01-29T09:41:59.003Z,101027.91
2023-01-29T09:44:27.174Z,101031.25
2023-01-29T09:46:55.109Z,101019.66
2023-01-29T09:49:22.956Z,101021.19
2023-01-29T09:51:50.728Z,101024.59
2023-01-29T09:54:18.951Z,101021.84
2023-01-29T09:56:47.296Z,101009.53
2023-01-29T09:59:15.039Z,101007.78
2023-01-29T10:01:42.843Z,101012.25
2023-01-29T10:04:10.821Z,101017.63
2023-01-29T10:06:38.620Z,101015.03
2023-01-29T10:09:06.428Z,101016.03
2023-01-29T10:11:34.503Z,101012.56
2023-01-29T10:14:02.752Z,101014.22
2023-01-29T10:16:30.559Z,101021.16
2023-01-29T10:18:58.647Z,101022.88
2023-01-29T10:21:27.288Z,101018.44
2023-01-29T10:23:54.939Z,101021.84
2023-01-29T10:26:22.891Z,101011.31
2023-01-29T10:28:51.006Z,101012.09
2023-01-29T10:31:19.231Z,101012.91
2023-01-29T10:34:00.717Z,101019.03
2023-01-29T10:36:29.940Z,101017.25
2023-01-29T10:38:57.872Z,101018.13
2023-01-29T10:41:26.016Z,101013.66
2023-01-29T10:43:54.340Z,101006.69
2023-01-29T10:46:22.361Z,100993.44
2023-01-29T10:48:50.249Z,100976.75
2023-01-29T10:51:18.033Z,100977.59
2023-01-29T10:53:45.923Z,100959.28
2023-01-29T10:56:22.618Z,100961.16
2023-01-29T10:58:51.037Z,100963.81
2023-01-29T11:01:18.948Z,100948.03
2023-01-29T11:03:47.436Z,100953.91
2023-01-29T11:06:16.024Z,100957.16
2023-01-29T11:08:43.842Z,100950.91
2023-01-29T11:11:11.701Z,100955.31
2023-01-29T11:13:39.686Z,100952.66
2023-01-29T11:16:07.641Z,100949.03
2023-01-29T11:18:35.848Z,100954.16
2023-01-29T11:21:04.130Z,100958.31
2023-01-29T11:23:31.943Z,100959.84
2023-01-29T11:25:59.787Z,100962.25
2023-01-29T11:28:27.927Z,100952.50
2023-01-29T11:30:56.142Z,100946.47
2023-01-29T11:33:23.981Z,100950.28
2023-01-29T11:35:53.005Z,100941.75
2023-01-29T11:38:21.408Z,100935.78
2023-01-29T11:40:49.342Z,100934.16
2023-01-29T11:43:17.611Z,100919.31
2023-01-29T11:45:45.460Z,100920.13
2023-01-29T11:48:13.243Z,100906.16
2023-01-29T11:50:41.291Z,100899.06
2023-01-29T11:53:09.318Z,100896.38
2023-01-29T11:55:49.739Z,100899.06
2023-01-29T11:58:18.487Z,100897.38
2023-01-29T12:00:46.401Z,100903.59
2023-01-29T12:03:14.456Z,100889.69
2023-01-29T12:05:42.741Z,100883.59
2023-01-29T12:08:10.577Z,100881.84
2023-01-29T12:10:38.376Z,100877.47
2023-01-29T12:13:06.192Z,100877.44
2023-01-29T12:15:34.116Z,100862.47
2023-01-29T12:18:02.292Z,100864.97
2023-01-29T12:20:30.260Z,100854.34
2023-01-29T12:22:58.308Z,100853.34
2023-01-29T12:25:26.131Z,100850.72
2023-01-29T12:27:54.247Z,100838.50
2023-01-29T12:30:22.333Z,100828.06
2023-01-29T12:32:50.123Z,100812.53
2023-01-29T12:35:18.107Z,100809.94
2023-01-29T12:37:45.956Z,100808.28
2023-01-29T12:40:15.617Z,100799.44
2023-01-29T12:42:44.218Z,100797.63
2023-01-29T12:45:12.390Z,100777.47
2023-01-29T12:47:40.248Z,100786.19
2023-01-29T12:50:08.334Z,100783.56
2023-01-29T12:52:36.547Z,100770.41
2023-01-29T12:55:04.804Z,100766.88
2023-01-29T12:57:32.640Z,100764.16
2023-01-29T13:00:00.671Z,100751.06
2023-01-29T13:02:28.974Z,100757.09
2023-01-29T13:04:57.177Z,100754.34
2023-01-29T13:07:25.038Z,100752.59
2023-01-29T13:09:52.895Z,100750.81
2023-01-29T13:12:20.827Z,100749.91
2023-01-29T13:14:48.758Z,100760.44
2023-01-29T13:17:16.722Z,100752.53
2023-01-29T13:19:46.001Z,100750.88
2023-01-29T13:22:13.798Z,100752.63
2023-01-29T13:24:42.341Z,100748.28
2023-01-29T13:27:12.221Z,100748.31
2023-01-29T13:29:40.367Z,100745.78
2023-01-29T13:32:08.533Z,100741.41
2023-01-29T13:34:36.423Z,100735.28
2023-01-29T13:37:04.226Z,100738.78
2023-01-29T13:39:32.044Z,100729.16
2023-01-29T13:42:00.585Z,100730.81
2023-01-29T13:44:28.845Z,100729.03
2023-01-29T13:46:57.909Z,100725.53
2023-01-29T13:49:25.855Z,100721.91
2023-01-29T13:51:53.799Z,100722.75
2023-01-29T13:54:21.909Z,100720.91
2023-01-29T13:56:52.394Z,100725.22
2023-01-29T13:59:20.188Z,100720.75
2023-01-29T14:01:48.186Z,100728.50
2023-01-29T14:04:18.867Z,100724.13
2023-01-29T14:06:46.927Z,100721.50
2023-01-29T14:09:15.597Z,100723.25
2023-01-29T14:11:43.552Z,100723.25
2023-01-29T14:14:11.408Z,100719.78
2023-01-29T14:16:39.247Z,100718.91
2023-01-29T14:19:07.998Z,100723.34
2023-01-29T14:21:36.640Z,100719.00
2023-01-29T14:24:04.520Z,100724.25
2023-01-29T14:26:32.527Z,100725.03
2023-01-29T14:29:00.509Z,100718.75
2023-01-29T14:31:29.655Z,100732.72
2023-01-29T14:33:58.286Z,100730.03
2023-01-29T14:36:26.636Z,100735.28
2023-01-29T14:38:54.638Z,100734.44
2023-01-29T14:41:22.640Z,100734.44
2023-01-29T14:43:50.713Z,100730.03
2023-01-29T14:46:18.889Z,100732.66
2023-01-29T14:48:46.907Z,100731.81
2023-01-29T14:51:15.031Z,100723.06
2023-01-29T14:53:43.092Z,100727.47
2023-01-29T14:56:11.255Z,100725.75
2023-01-29T14:58:39.958Z,100715.28
2023-01-29T15:01:07.944Z,100710.13
2023-01-29T15:03:36.042Z,100717.25
2023-01-29T15:06:04.509Z,100724.34
2023-01-29T15:08:32.433Z,100720.91
2023-01-29T15:11:18.164Z,100715.78
2023-01-29T15:13:46.434Z,100710.56
2023-01-29T15:16:14.343Z,100709.69
2023-01-29T15:18:42.561Z,100700.13
2023-01-29T15:21:11.918Z,100696.66
2023-01-29T15:23:41.653Z,100695.00
2023-01-29T15:26:09.686Z,100696.75
2023-01-29T15:28:37.484Z,100692.41
2023-01-29T15:31:05.914Z,100686.38
2023-01-29T15:33:34.015Z,100686.38
2023-01-29T15:36:08.454Z,100684.59
2023-01-29T15:38:37.795Z,100688.16
2023-01-29T15:41:06.084Z,100683.78
2023-01-29T15:43:33.943Z,100686.38
2023-01-29T15:46:01.966Z,100682.91
2023-01-29T15:48:32.768Z,100684.59
2023-01-29T15:51:00.763Z,100685.53
2023-01-29T15:53:29.017Z,100670.59
2023-01-29T15:55:58.433Z,100673.22
2023-01-29T15:58:26.359Z,100675.00
2023-01-29T16:00:54.734Z,100666.25
2023-01-29T16:03:22.691Z,100682.91
2023-01-29T16:05:50.984Z,100674.16
2023-01-29T16:08:19.249Z,100680.28
2023-01-29T16:10:47.568Z,100669.81
2023-01-29T16:13:15.832Z,100666.31
2023-01-29T16:15:43.846Z,100668.03
2023-01-29T16:18:13.346Z,100668.88
2023-01-29T16:20:41.599Z,100668.94
2023-01-29T16:23:09.446Z,100654.97
2023-01-29T16:25:37.726Z,100661.13
2023-01-29T16:28:05.574Z,100656.75
2023-01-29T16:30:33.591Z,100651.50
2023-01-29T16:33:01.429Z,100650.66
2023-01-29T16:35:29.411Z,100649.78
2023-01-29T16:37:57.904Z,100642.81
2023-01-29T16:40:26.209Z,100634.94
2023-01-29T16:42:54.339Z,100630.56
2023-01-29T16:45:22.280Z,100639.28
2023-01-29T16:47:50.231Z,100631.41
2023-01-29T16:50:18.541Z,100630.56
2023-01-29T16:52:46.614Z,100633.13
2023-01-29T16:55:14.887Z,100633.13
2023-01-29T16:57:43.140Z,100630.50
2023-01-29T17:00:11.046Z,100626.13
2023-01-29T17:02:39.756Z,100616.47
2023-01-29T17:05:07.664Z,100609.44
2023-01-29T17:07:35.985Z,100611.22
2023-01-29T17:10:03.919Z,100601.56
2023-01-29T17:12:31.761Z,100593.66
2023-01-29T17:15:00.111Z,100586.69
2023-01-29T17:17:27.909Z,100583.13
2023-01-29T17:19:56.707Z,100576.09
2023-01-29T17:22:24.866Z,100580.50
2023-01-29T17:24:52.776Z,100567.38
2023-01-29T17:27:20.628Z,100569.09
2023-01-29T17:29:48.656Z,100576.06
2023-01-29T17:32:17.554Z,100575.13
2023-01-29T17:34:45.345Z,100576.84
2023-01-29T17:37:13.467Z,100575.09
2023-01-29T17:39:42.019Z,100564.53
2023-01-29T17:42:09.858Z,100564.47
2023-01-29T17:44:37.829Z,100568.75
2023-01-29T17:47:06.425Z,100570.47
2023-01-29T17:49:34.234Z,100570.38
2023-01-29T17:52:02.928Z,100567.66
2023-01-29T17:54:30.840Z,100562.38
2023-01-29T17:56:59.779Z,100565.00
2023-01-29T17:59:28.096Z,100568.41
2023-01-29T18:01:56.014Z,100561.47
2023-01-29T18:04:24.425Z,100554.44
2023-01-29T18:06:52.503Z,100557.91
2023-01-29T18:09:21.891Z,100560.50
2023-01-29T18:11:49.897Z,100553.47
2023-01-29T18:14:17.919Z,100558.75
2023-01-29T18:16:46.318Z,100550.84
2023-01-29T18:19:14.367Z,100557.81
2023-01-29T18:21:42.348Z,100548.22
2023-01-29T18:24:10.124Z,100539.44
2023-01-29T18:26:38.138Z,100546.44
2023-01-29T18:29:06.518Z,100538.56
2023-01-29T18:31:34.988Z,100531.56
2023-01-29T18:34:03.393Z,100529.84
2023-01-29T18:36:31.577Z,100532.50
2023-01-29T18:38:59.513Z,100521.22
2023-01-29T18:41:27.611Z,100520.34
2023-01-29T18:43:55.624Z,100507.25
2023-01-29T18:46:24.416Z,100498.53
2023-01-29T18:48:52.220Z,100496.81
2023-01-29T18:51:20.291Z,100489.88
2023-01-29T18:53:48.863Z,100472.38
2023-01-29T18:56:16.730Z,100473.28
2023-01-29T18:58:52.515Z,100461.97
2023-01-29T19:01:23.296Z,100456.84
2023-01-29T19:03:52.030Z,100438.66
2023-01-29T19:06:19.877Z,100437.03
2023-01-29T19:08:48.202Z,100449.47
2023-01-29T19:11:16.343Z,100446.06
2023-01-29T19:13:44.659Z,100463.53
2023-01-29T19:16:13.337Z,100452.91
2023-01-29T19:18:41.421Z,100448.41
2023-01-29T19:21:09.359Z,100457.88
2023-01-29T19:23:37.115Z,100447.25
2023-01-29T19:26:05.272Z,100451.53
2023-01-29T19:28:33.748Z,100474.19
2023-01-29T19:31:01.714Z,100457.53
2023-01-29T19:33:29.969Z,100450.56
2023-01-29T19:35:58.231Z,100447.13
2023-01-29T19:38:26.165Z,100449.88
2023-01-29T19:40:55.937Z,100456.94
2023-01-29T19:43:24.094Z,100450.00
2023-01-29T19:45:52.852Z,100436.03
2023-01-29T19:48:22.074Z,100415.06
2023-01-29T19:50:49.989Z,100415.16
2023-01-29T19:53:18.339Z,100401.28
2023-01-29T19:55:46.414Z,100390.97
2023-01-29T19:58:15.511Z,100400.69
2023-01-29T20:00:43.451Z,100404.22
2023-01-29T20:03:11.380Z,100402.50
2023-01-29T20:05:39.533Z,100401.63
2023-01-29T20:08:07.474Z,100392.84
2023-01-29T20:10:35.368Z,100391.97
2023-01-29T20:13:03.308Z,100391.88
2023-01-29T20:15:31.274Z,100390.97
2023-01-29T20:18:00.313Z,100370.81
2023-01-29T20:20:31.099Z,100359.41
2023-01-29T20:23:01.782Z,100341.91
2023-01-29T20:25:30.070Z,100334.03
2023-01-29T20:27:58.069Z,100331.41
2023-01-29T20:30:26.527Z,100319.97
2023-01-29T20:32:54.357Z,100313.81
2023-01-29T20:35:22.964Z,100311.13
2023-01-29T20:37:51.015Z,100312.84
2023-01-29T20:40:19.530Z,100316.19
2023-01-29T20:42:47.495Z,100300.34
2023-01-29T20:45:15.687Z,100297.66
2023-01-29T20:47:43.780Z,100298.47
2023-01-29T20:50:11.641Z,100287.03
2023-01-29T20:52:39.613Z,100301.81
2023-01-29T20:55:07.751Z,100297.28
2023-01-29T20:57:35.928Z,100296.38
2023-01-29T21:00:03.861Z,100287.53
2023-01-29T21:02:32.142Z,100273.38
2023-01-29T21:05:00.016Z,100276.78
2023-01-29T21:07:28.544Z,100264.44
2023-01-29T21:09:56.287Z,100275.66
2023-01-29T21:12:23.992Z,100259.91
2023-01-29T21:14:51.995Z,100257.28
2023-01-29T21:17:19.875Z,100270.41
2023-01-29T21:19:48.234Z,100284.47
2023-01-29T21:22:16.314Z,100287.03
2023-01-29T21:24:44.031Z,100280.81
2023-01-29T21:27:11.870Z,100278.97
2023-01-29T21:29:39.978Z,100274.44
2023-01-29T21:32:09.985Z,100269.03
2023-01-29T21:34:38.021Z,100258.44
2023-01-29T21:37:06.119Z,100260.06
2023-01-29T21:39:33.990Z,100238.97
2023-01-29T21:42:19.759Z,100245.09
2023-01-29T21:44:48.000Z,100259.94
2023-01-29T21:47:16.250Z,100250.19
2023-01-29T21:49:44.094Z,100245.81
2023-01-29T21:52:11.997Z,100257.09
2023-01-29T21:54:47.508Z,100272.88
2023-01-29T21:57:16.548Z,100262.31
2023-01-29T21:59:45.142Z,100264.00
2023-01-29T22:02:18.560Z,100265.72
2023-01-29T22:04:46.388Z,100284.06
2023-01-29T22:07:14.587Z,100276.97
2023-01-29T22:09:42.678Z,100279.53
2023-01-29T22:12:10.708Z,100273.34
2023-01-29T22:14:38.624Z,100275.00
2023-01-29T22:17:06.683Z,100262.56
2023-01-29T22:19:34.816Z,100250.16
2023-01-29T22:22:03.084Z,100247.31
2023-01-29T22:24:30.915Z,100257.69
2023-01-29T22:26:59.093Z,100247.03
2023-01-29T22:29:26.921Z,100234.69
2023-01-29T22:31:57.654Z,100236.47
2023-01-29T22:34:25.702Z,100273.28
2023-01-29T22:36:54.111Z,100267.19
2023-01-29T22:39:22.096Z,100265.31
2023-01-29T22:41:50.137Z,100265.25
2023-01-29T22:44:18.317Z,100271.38
2023-01-29T22:46:46.385Z,100248.56
2023-01-29T22:49:14.530Z,100242.31
2023-01-29T22:51:42.295Z,100254.44
2023-01-29T22:54:10.137Z,100256.09
2023-01-29T22:56:38.288Z,100247.22
2023-01-29T22:59:06.302Z,100235.72
2023-01-29T23:01:34.264Z,100226.75
2023-01-29T23:04:03.989Z,100216.94
2023-01-29T23:06:31.809Z,100200.06
2023-01-29T23:08:59.866Z,100200.84
2023-01-29T23:11:28.925Z,100164.78
2023-01-29T23:13:56.692Z,100154.25
2023-01-29T23:16:26.250Z,100137.63
2023-01-29T23:18:55.360Z,100138.47
2023-01-29T23:21:23.518Z,100125.38
2023-01-29T23:23:52.562Z,100106.13
2023-01-29T23:26:37.956Z,100090.34
2023-01-29T23:29:05.733Z,100076.25
2023-01-29T23:31:34.328Z,100059.53
2023-01-29T23:34:02.250Z,100049.88
2023-01-29T23:36:30.026Z,100053.34
2023-01-29T23:38:57.807Z,100088.41
2023-01-29T23:41:25.586Z,100099.66
2023-01-29T23:43:53.736Z,100098.66
2023-01-29T23:46:21.468Z,100087.97
2023-01-29T23:48:49.083Z,100087.81
2023-01-29T23:51:16.845Z,100073.75
2023-01-29T23:53:44.538Z,100068.31
2023-01-29T23:56:12.697Z,100078.78
2023-01-29T23:58:40.574Z,100054.16
